sensor_id;sensor_type;location;lat;lon;timestamp;pressure;altitude;pressure_sealevel;temperature;humidity
28935;BME280;16044;52.726;-2.108;2023-11-22T00:01:48;102115.53;;;5.28;100.00
28935;BME280;16044;52.726;-2.108;2023-11-22T00:04:19;102112.94;;;5.27;100.00
28935;BME280;16044;52.726;-2.108;2023-11-22T00:06:50;102118.13;;;5.30;100.00
28935;BME280;16044;52.726;-2.108;2023-11-22T00:09:20;102102.75;;;5.32;100.00
28935;BME280;16044;52.726;-2.108;2023-11-22T00:11:50;102105.44;;;5.32;100.00
28935;BME280;16044;52.726;-2.108;2023-11-22T00:14:23;102101.03;;;5.31;100.00
28935;BME280;16044;52.726;-2.108;2023-11-22T00:16:54;102090.16;;;5.33;100.00
28935;BME280;16044;52.726;-2.108;2023-11-22T00:19:24;102086.53;;;5.34;100.00
28935;BME280;16044;52.726;-2.108;2023-11-22T00:21:55;102091.06;;;5.33;100.00
28935;BME280;16044;52.726;-2.108;2023-11-22T00:24:25;102091.91;;;5.34;100.00
28935;BME280;16044;52.726;-2.108;2023-11-22T00:26:55;102092.88;;;5.33;100.00
28935;BME280;16044;52.726;-2.108;2023-11-22T00:29:29;102095.56;;;5.33;100.00
28935;BME280;16044;52.726;-2.108;2023-11-22T00:31:59;102090.16;;;5.33;100.00
28935;BME280;16044;52.726;-2.108;2023-11-22T00:34:30;102080.50;;;5.30;100.00
28935;BME280;16044;52.726;-2.108;2023-11-22T00:37:00;102083.09;;;5.32;100.00
28935;BME280;16044;52.726;-2.108;2023-11-22T00:39:30;102073.09;;;5.34;100.00
28935;BME280;16044;52.726;-2.108;2023-11-22T00:42:01;102068.66;;;5.33;100.00
28935;BME280;16044;52.726;-2.108;2023-11-22T00:44:33;102073.19;;;5.32;100.00
28935;BME280;16044;52.726;-2.108;2023-11-22T00:47:05;102068.66;;;5.33;100.00
28935;BME280;16044;52.726;-2.108;2023-11-22T00:49:35;102070.41;;;5.34;100.00
28935;BME280;16044;52.726;-2.108;2023-11-22T00:52:06;102075.03;;;5.32;100.00
28935;BME280;16044;52.726;-2.108;2023-11-22T00:54:36;102074.28;;;5.30;100.00
28935;BME280;16044;52.726;-2.108;2023-11-22T00:57:07;102071.56;;;5.30;100.00
28935;BME280;16044;52.726;-2.108;2023-11-22T00:59:40;102075.03;;;5.32;100.00
28935;BME280;16044;52.726;-2.108;2023-11-22T01:02:10;102079.66;;;5.30;100.00
28935;BME280;16044;52.726;-2.108;2023-11-22T01:04:41;102086.72;;;5.31;100.00
28935;BME280;16044;52.726;-2.108;2023-11-22T01:07:11;102083.94;;;5.32;100.00
28935;BME280;16044;52.726;-2.108;2023-11-22T01:09:41;102072.34;;;5.32;100.00
28935;BME280;16044;52.726;-2.108;2023-11-22T01:12:12;102069.53;;;5.33;100.00
28935;BME280;16044;52.726;-2.108;2023-11-22T01:14:45;102073.84;;;5.36;100.00
28935;BME280;16044;52.726;-2.108;2023-11-22T01:17:15;102068.28;;;5.39;100.00
28935;BME280;16044;52.726;-2.108;2023-11-22T01:19:46;102064.59;;;5.40;100.00
28935;BME280;16044;52.726;-2.108;2023-11-22T01:22:17;102062.66;;;5.42;100.00
28935;BME280;16044;52.726;-2.108;2023-11-22T01:24:48;102057.19;;;5.43;100.00
28935;BME280;16044;52.726;-2.108;2023-11-22T01:27:18;102057.28;;;5.42;100.00
28935;BME280;16044;52.726;-2.108;2023-11-22T01:29:51;102064.16;;;5.46;100.00
28935;BME280;16044;52.726;-2.108;2023-11-22T01:32:21;102059.78;;;5.45;100.00
28935;BME280;16044;52.726;-2.108;2023-11-22T01:34:52;102059.78;;;5.45;100.00
28935;BME280;16044;52.726;-2.108;2023-11-22T01:37:26;102057.19;;;5.43;100.00
28935;BME280;16044;52.726;-2.108;2023-11-22T01:39:57;102056.00;;;5.47;100.00
28935;BME280;16044;52.726;-2.108;2023-11-22T01:42:27;102065.72;;;5.50;100.00
28935;BME280;16044;52.726;-2.108;2023-11-22T01:45:00;102069.34;;;5.49;100.00
28935;BME280;16044;52.726;-2.108;2023-11-22T01:47:32;102068.41;;;5.50;100.00
28935;BME280;16044;52.726;-2.108;2023-11-22T01:50:03;102071.09;;;5.50;100.00
28935;BME280;16044;52.726;-2.108;2023-11-22T01:52:36;102066.75;;;5.47;100.00
28935;BME280;16044;52.726;-2.108;2023-11-22T01:55:07;102055.91;;;5.49;100.00
28935;BME280;16044;52.726;-2.108;2023-11-22T01:57:38;102063.78;;;5.52;100.00
28935;BME280;16044;52.726;-2.108;2023-11-22T02:00:13;102058.41;;;5.52;100.00
28935;BME280;16044;52.726;-2.108;2023-11-22T02:02:43;102057.66;;;5.50;100.00
28935;BME280;16044;52.726;-2.108;2023-11-22T02:05:14;102050.44;;;5.51;100.00
28935;BME280;16044;52.726;-2.108;2023-11-22T02:07:45;102040.53;;;5.51;100.00
28935;BME280;16044;52.726;-2.108;2023-11-22T02:10:15;102033.22;;;5.53;100.00
28935;BME280;16044;52.726;-2.108;2023-11-22T02:12:45;102026.97;;;5.53;100.00
28935;BME280;16044;52.726;-2.108;2023-11-22T02:15:18;102029.75;;;5.51;100.00
28935;BME280;16044;52.726;-2.108;2023-11-22T02:17:49;102039.56;;;5.52;100.00
28935;BME280;16044;52.726;-2.108;2023-11-22T02:20:30;102058.25;;;5.54;100.00
28935;BME280;16044;52.726;-2.108;2023-11-22T02:23:07;102042.25;;;5.52;100.00
28935;BME280;16044;52.726;-2.108;2023-11-22T02:25:38;102049.44;;;5.52;100.00
28935;BME280;16044;52.726;-2.108;2023-11-22T02:28:09;102040.53;;;5.51;100.00
28935;BME280;16044;52.726;-2.108;2023-11-22T02:30:39;102040.44;;;5.53;100.00
28935;BME280;16044;52.726;-2.108;2023-11-22T02:33:09;102027.81;;;5.53;100.00
28935;BME280;16044;52.726;-2.108;2023-11-22T02:35:40;102027.81;;;5.53;100.00
28935;BME280;16044;52.726;-2.108;2023-11-22T02:38:13;102035.69;;;5.56;100.00
28935;BME280;16044;52.726;-2.108;2023-11-22T02:40:45;102032.34;;;5.53;100.00
28935;BME280;16044;52.726;-2.108;2023-11-22T02:43:17;102034.94;;;5.54;100.00
28935;BME280;16044;52.726;-2.108;2023-11-22T02:45:48;102021.69;;;5.51;100.00
28935;BME280;16044;52.726;-2.108;2023-11-22T02:48:18;102014.47;;;5.52;100.00
28935;BME280;16044;52.726;-2.108;2023-11-22T02:50:49;102019.66;;;5.55;100.00
28935;BME280;16044;52.726;-2.108;2023-11-22T02:53:23;102024.19;;;5.54;100.00
28935;BME280;16044;52.726;-2.108;2023-11-22T02:55:54;102019.47;;;5.58;100.00
28935;BME280;16044;52.726;-2.108;2023-11-22T02:58:25;102023.19;;;5.55;100.00
28935;BME280;16044;52.726;-2.108;2023-11-22T03:00:55;102009.84;;;5.54;100.00
28935;BME280;16044;52.726;-2.108;2023-11-22T03:03:26;102008.03;;;5.54;100.00
28935;BME280;16044;52.726;-2.108;2023-11-22T03:05:56;102015.38;;;5.52;100.00
28935;BME280;16044;52.726;-2.108;2023-11-22T03:08:29;102027.81;;;5.53;100.00
28935;BME280;16044;52.726;-2.108;2023-11-22T03:11:00;102040.97;;;5.58;100.00
28935;BME280;16044;52.726;-2.108;2023-11-22T03:13:30;102029.75;;;5.51;100.00
28935;BME280;16044;52.726;-2.108;2023-11-22T03:16:01;102025.88;;;5.55;100.00
28935;BME280;16044;52.726;-2.108;2023-11-22T03:18:32;102026.88;;;5.54;100.00
28935;BME280;16044;52.726;-2.108;2023-11-22T03:21:03;102031.69;;;5.49;100.00
28935;BME280;16044;52.726;-2.108;2023-11-22T03:23:36;102044.81;;;5.54;100.00
28935;BME280;16044;52.726;-2.108;2023-11-22T03:26:07;102019.75;;;5.53;100.00
28935;BME280;16044;52.726;-2.108;2023-11-22T03:28:37;102026.63;;;5.57;100.00
28935;BME280;16044;52.726;-2.108;2023-11-22T03:31:08;102018.56;;;5.57;100.00
28935;BME280;16044;52.726;-2.108;2023-11-22T03:33:38;102015.78;;;5.59;100.00
28935;BME280;16044;52.726;-2.108;2023-11-22T03:36:09;102019.47;;;5.58;100.00
28935;BME280;16044;52.726;-2.108;2023-11-22T03:38:42;102009.56;;;5.58;100.00
28935;BME280;16044;52.726;-2.108;2023-11-22T03:41:13;102002.44;;;5.57;100.00
28935;BME280;16044;52.726;-2.108;2023-11-22T03:43:44;102005.56;;;5.64;100.00
28935;BME280;16044;52.726;-2.108;2023-11-22T03:46:14;102012.66;;;5.65;100.00
28935;BME280;16044;52.726;-2.108;2023-11-22T03:48:44;101992.53;;;5.71;100.00
28935;BME280;16044;52.726;-2.108;2023-11-22T03:51:15;102010.22;;;5.75;100.00
28935;BME280;16044;52.726;-2.108;2023-11-22T03:53:48;101992.66;;;5.69;100.00
28935;BME280;16044;52.726;-2.108;2023-11-22T03:56:18;101997.16;;;5.69;100.00
28935;BME280;16044;52.726;-2.108;2023-11-22T03:58:49;102005.97;;;5.71;100.00
28935;BME280;16044;52.726;-2.108;2023-11-22T04:01:19;102011.38;;;5.71;100.00
28935;BME280;16044;52.726;-2.108;2023-11-22T04:03:50;101993.41;;;5.71;100.00
28935;BME280;16044;52.726;-2.108;2023-11-22T04:06:21;101997.91;;;5.71;100.00
28935;BME280;16044;52.726;-2.108;2023-11-22T04:08:54;101982.88;;;5.68;100.00
28935;BME280;16044;52.726;-2.108;2023-11-22T04:11:24;101983.72;;;5.69;100.00
28935;BME280;16044;52.726;-2.108;2023-11-22T04:13:56;101965.63;;;5.71;100.00
28935;BME280;16044;52.726;-2.108;2023-11-22T04:16:27;101956.59;;;5.72;100.00
28935;BME280;16044;52.726;-2.108;2023-11-22T04:18:57;101960.25;;;5.71;100.00
28935;BME280;16044;52.726;-2.108;2023-11-22T04:21:28;101959.28;;;5.72;100.00
28935;BME280;16044;52.726;-2.108;2023-11-22T04:24:01;101952.94;;;5.73;100.00
28935;BME280;16044;52.726;-2.108;2023-11-22T04:26:32;101953.81;;;5.73;100.00
28935;BME280;16044;52.726;-2.108;2023-11-22T04:29:02;101950.22;;;5.73;100.00
28935;BME280;16044;52.726;-2.108;2023-11-22T04:31:33;101947.44;;;5.74;100.00
28935;BME280;16044;52.726;-2.108;2023-11-22T04:34:04;101941.09;;;5.75;100.00
28935;BME280;16044;52.726;-2.108;2023-11-22T04:36:35;101947.44;;;5.74;100.00
28935;BME280;16044;52.726;-2.108;2023-11-22T04:39:08;101953.81;;;5.73;100.00
28935;BME280;16044;52.726;-2.108;2023-11-22T04:41:40;101952.94;;;5.73;100.00
28935;BME280;16044;52.726;-2.108;2023-11-22T04:44:10;101954.56;;;5.75;100.00
28935;BME280;16044;52.726;-2.108;2023-11-22T04:46:40;101951.03;;;5.75;100.00
28935;BME280;16044;52.726;-2.108;2023-11-22T04:49:11;101952.72;;;5.76;100.00
28935;BME280;16044;52.726;-2.108;2023-11-22T04:51:41;101951.78;;;5.77;100.00
28935;BME280;16044;52.726;-2.108;2023-11-22T04:54:15;101952.50;;;5.79;100.00
28935;BME280;16044;52.726;-2.108;2023-11-22T04:56:45;101943.06;;;5.73;100.00
28935;BME280;16044;52.726;-2.108;2023-11-22T04:59:16;101942.06;;;5.74;100.00
28935;BME280;16044;52.726;-2.108;2023-11-22T05:01:46;101935.94;;;5.72;100.00
28935;BME280;16044;52.726;-2.108;2023-11-22T05:04:16;101936.19;;;5.69;100.00
28935;BME280;16044;52.726;-2.108;2023-11-22T05:06:47;101943.47;;;5.67;100.00
28935;BME280;16044;52.726;-2.108;2023-11-22T05:09:20;101932.41;;;5.59;100.00
28935;BME280;16044;52.726;-2.108;2023-11-22T05:11:51;101914.66;;;5.56;100.00
28935;BME280;16044;52.726;-2.108;2023-11-22T05:14:22;101889.59;;;5.56;100.00
28935;BME280;16044;52.726;-2.108;2023-11-22T05:16:53;101902.41;;;5.52;100.00
28935;BME280;16044;52.726;-2.108;2023-11-22T05:19:24;101899.16;;;5.47;100.00
28935;BME280;16044;52.726;-2.108;2023-11-22T05:21:54;101902.06;;;5.44;100.00
28935;BME280;16044;52.726;-2.108;2023-11-22T05:24:27;101911.13;;;5.43;100.00
28935;BME280;16044;52.726;-2.108;2023-11-22T05:26:57;101909.50;;;5.40;100.00
28935;BME280;16044;52.726;-2.108;2023-11-22T05:29:28;101912.72;;;5.45;100.00
28935;BME280;16044;52.726;-2.108;2023-11-22T05:32:09;101914.66;;;5.43;100.00
28935;BME280;16044;52.726;-2.108;2023-11-22T05:34:39;101925.22;;;5.46;100.00
28935;BME280;16044;52.726;-2.108;2023-11-22T05:37:10;101926.91;;;5.47;100.00
28935;BME280;16044;52.726;-2.108;2023-11-22T05:39:43;101932.00;;;5.52;100.00
28935;BME280;16044;52.726;-2.108;2023-11-22T05:42:13;101948.88;;;5.54;100.00
28935;BME280;16044;52.726;-2.108;2023-11-22T05:44:45;101952.31;;;5.56;100.00
28935;BME280;16044;52.726;-2.108;2023-11-22T05:47:17;101952.53;;;5.53;100.00
28935;BME280;16044;52.726;-2.108;2023-11-22T05:49:48;101952.31;;;5.56;100.00
28935;BME280;16044;52.726;-2.108;2023-11-22T05:52:19;101955.75;;;5.58;100.00
28935;BME280;16044;52.726;-2.108;2023-11-22T05:54:53;101958.34;;;5.60;100.00
28935;BME280;16044;52.726;-2.108;2023-11-22T05:57:23;101953.72;;;5.62;100.00
28935;BME280;16044;52.726;-2.108;2023-11-22T05:59:54;101961.78;;;5.62;100.00
28935;BME280;16044;52.726;-2.108;2023-11-22T06:02:24;101957.25;;;5.62;100.00
28935;BME280;16044;52.726;-2.108;2023-11-22T06:04:54;101957.16;;;5.64;100.00
28935;BME280;16044;52.726;-2.108;2023-11-22T06:07:25;101954.34;;;5.65;100.00
28935;BME280;16044;52.726;-2.108;2023-11-22T06:09:58;101954.34;;;5.65;100.00
28935;BME280;16044;52.726;-2.108;2023-11-22T06:12:30;101955.09;;;5.68;100.00
28935;BME280;16044;52.726;-2.108;2023-11-22T06:15:00;101957.91;;;5.66;100.00
28935;BME280;16044;52.726;-2.108;2023-11-22T06:17:30;101944.34;;;5.68;100.00
28935;BME280;16044;52.726;-2.108;2023-11-22T06:20:01;101949.63;;;5.69;100.00
28935;BME280;16044;52.726;-2.108;2023-11-22T06:22:32;101944.25;;;5.69;100.00
28935;BME280;16044;52.726;-2.108;2023-11-22T06:25:07;101955.75;;;5.71;100.00
28935;BME280;16044;52.726;-2.108;2023-11-22T06:27:38;101955.09;;;5.68;100.00
28935;BME280;16044;52.726;-2.108;2023-11-22T06:30:09;101943.47;;;5.67;100.00
28935;BME280;16044;52.726;-2.108;2023-11-22T06:32:41;101941.56;;;5.69;100.00
28935;BME280;16044;52.726;-2.108;2023-11-22T06:35:12;101949.72;;;5.68;100.00
28935;BME280;16044;52.726;-2.108;2023-11-22T06:37:44;101953.06;;;5.71;100.00
28935;BME280;16044;52.726;-2.108;2023-11-22T06:40:17;101948.63;;;5.70;100.00
28935;BME280;16044;52.726;-2.108;2023-11-22T06:42:48;101956.59;;;5.72;100.00
28935;BME280;16044;52.726;-2.108;2023-11-22T06:45:18;101958.22;;;5.74;100.00
28935;BME280;16044;52.726;-2.108;2023-11-22T06:47:49;101945.63;;;5.75;100.00
28935;BME280;16044;52.726;-2.108;2023-11-22T06:50:20;101947.34;;;5.76;100.00
28935;BME280;16044;52.726;-2.108;2023-11-22T06:52:50;101941.97;;;5.76;100.00
28935;BME280;16044;52.726;-2.108;2023-11-22T06:55:24;101941.09;;;5.75;100.00
28935;BME280;16044;52.726;-2.108;2023-11-22T06:57:55;101939.28;;;5.76;100.00
28935;BME280;16044;52.726;-2.108;2023-11-22T07:00:25;101936.25;;;5.80;100.00
28935;BME280;16044;52.726;-2.108;2023-11-22T07:02:55;101923.88;;;5.78;100.00
28935;BME280;16044;52.726;-2.108;2023-11-22T07:05:26;101916.78;;;5.77;100.00
28935;BME280;16044;52.726;-2.108;2023-11-22T07:07:57;101919.97;;;5.82;100.00
28935;BME280;16044;52.726;-2.108;2023-11-22T07:10:31;101920.22;;;5.79;100.00
28935;BME280;16044;52.726;-2.108;2023-11-22T07:13:02;101912.16;;;5.79;100.00
28935;BME280;16044;52.726;-2.108;2023-11-22T07:15:33;101921.94;;;5.80;100.00
28935;BME280;16044;52.726;-2.108;2023-11-22T07:18:04;101901.50;;;5.77;100.00
28935;BME280;16044;52.726;-2.108;2023-11-22T07:20:37;101891.47;;;5.79;100.00
28935;BME280;16044;52.726;-2.108;2023-11-22T07:23:07;101888.78;;;5.79;100.00
28935;BME280;16044;52.726;-2.108;2023-11-22T07:25:43;101896.56;;;5.71;100.00
28935;BME280;16044;52.726;-2.108;2023-11-22T07:28:13;101900.84;;;5.74;100.00
28935;BME280;16044;52.726;-2.108;2023-11-22T07:30:44;101908.81;;;5.75;100.00
28935;BME280;16044;52.726;-2.108;2023-11-22T07:33:15;101907.72;;;5.78;100.00
28935;BME280;16044;52.726;-2.108;2023-11-22T07:35:47;101898.69;;;5.79;100.00
28935;BME280;16044;52.726;-2.108;2023-11-22T07:38:19;101890.38;;;5.82;100.00
28935;BME280;16044;52.726;-2.108;2023-11-22T07:40:53;101885.16;;;5.80;100.00
28935;BME280;16044;52.726;-2.108;2023-11-22T07:43:24;101887.94;;;5.79;100.00
28935;BME280;16044;52.726;-2.108;2023-11-22T07:45:57;101894.63;;;5.73;100.00
28935;BME280;16044;52.726;-2.108;2023-11-22T07:48:28;101899.66;;;5.78;100.00
28935;BME280;16044;52.726;-2.108;2023-11-22T07:50:58;101895.03;;;5.80;100.00
28935;BME280;16044;52.726;-2.108;2023-11-22T07:53:29;101907.72;;;5.78;100.00
28935;BME280;16044;52.726;-2.108;2023-11-22T07:56:04;101904.09;;;5.79;100.00
28935;BME280;16044;52.726;-2.108;2023-11-22T07:58:36;101920.22;;;5.79;100.00
28935;BME280;16044;52.726;-2.108;2023-11-22T08:01:07;101912.78;;;5.82;100.00
28935;BME280;16044;52.726;-2.108;2023-11-22T08:03:41;101907.41;;;5.82;100.00
28935;BME280;16044;52.726;-2.108;2023-11-22T08:06:16;101897.50;;;5.83;100.00
28935;BME280;16044;52.726;-2.108;2023-11-22T08:08:47;101904.47;;;5.85;100.00
28935;BME280;16044;52.726;-2.108;2023-11-22T08:11:20;101918.69;;;5.88;100.00
28935;BME280;16044;52.726;-2.108;2023-11-22T08:13:51;101927.50;;;5.90;100.00
28935;BME280;16044;52.726;-2.108;2023-11-22T08:16:25;101921.28;;;5.89;100.00
28935;BME280;16044;52.726;-2.108;2023-11-22T08:18:55;101922.00;;;5.91;100.00
28935;BME280;16044;52.726;-2.108;2023-11-22T08:21:26;101928.16;;;5.93;100.00
28935;BME280;16044;52.726;-2.108;2023-11-22T08:23:56;101934.84;;;6.00;100.00
28935;BME280;16044;52.726;-2.108;2023-11-22T08:26:29;101932.91;;;6.02;100.00
28935;BME280;16044;52.726;-2.108;2023-11-22T08:28:59;101941.50;;;6.08;100.00
28935;BME280;16044;52.726;-2.108;2023-11-22T08:31:30;101963.78;;;6.10;100.00
28935;BME280;16044;52.726;-2.108;2023-11-22T08:34:01;101968.81;;;6.14;100.00
28935;BME280;16044;52.726;-2.108;2023-11-22T08:36:34;101966.03;;;6.16;100.00
28935;BME280;16044;52.726;-2.108;2023-11-22T08:39:04;101962.13;;;6.20;100.00
28935;BME280;16044;52.726;-2.108;2023-11-22T08:41:37;101959.22;;;6.23;100.00
28935;BME280;16044;52.726;-2.108;2023-11-22T08:44:08;101957.91;;;6.29;100.00
28935;BME280;16044;52.726;-2.108;2023-11-22T08:46:38;101949.63;;;6.32;100.00
28935;BME280;16044;52.726;-2.108;2023-11-22T08:49:08;101933.84;;;6.38;100.00
28935;BME280;16044;52.726;-2.108;2023-11-22T08:51:39;101917.47;;;6.41;100.00
28935;BME280;16044;52.726;-2.108;2023-11-22T08:54:10;101902.59;;;6.49;100.00
28935;BME280;16044;52.726;-2.108;2023-11-22T08:56:43;101886.81;;;6.55;100.00
28935;BME280;16044;52.726;-2.108;2023-11-22T08:59:14;101883.53;;;6.63;100.00
28935;BME280;16044;52.726;-2.108;2023-11-22T09:01:45;101884.66;;;6.72;100.00
28935;BME280;16044;52.726;-2.108;2023-11-22T09:04:15;101890.56;;;6.77;100.00
28935;BME280;16044;52.726;-2.108;2023-11-22T09:06:46;101897.44;;;6.81;100.00
28935;BME280;16044;52.726;-2.108;2023-11-22T09:09:17;101904.69;;;6.92;100.00
28935;BME280;16044;52.726;-2.108;2023-11-22T09:11:52;101903.97;;;7.01;100.00
28935;BME280;16044;52.726;-2.108;2023-11-22T09:14:23;101890.28;;;7.04;100.00
28935;BME280;16044;52.726;-2.108;2023-11-22T09:16:53;101885.00;;;7.14;100.00
28935;BME280;16044;52.726;-2.108;2023-11-22T09:19:24;101882.81;;;7.19;100.00
28935;BME280;16044;52.726;-2.108;2023-11-22T09:21:55;101871.44;;;7.27;100.00
28935;BME280;16044;52.726;-2.108;2023-11-22T09:24:26;101867.72;;;7.28;100.00
28935;BME280;16044;52.726;-2.108;2023-11-22T09:26:59;101877.19;;;7.33;100.00
28935;BME280;16044;52.726;-2.108;2023-11-22T09:29:32;101865.03;;;7.39;100.00
28935;BME280;16044;52.726;-2.108;2023-11-22T09:32:03;101835.13;;;7.42;100.00
28935;BME280;16044;52.726;-2.108;2023-11-22T09:34:34;101834.63;;;7.48;100.00
28935;BME280;16044;52.726;-2.108;2023-11-22T09:37:04;101841.03;;;7.47;100.00
28935;BME280;16044;52.726;-2.108;2023-11-22T09:39:35;101825.19;;;7.54;100.00
28935;BME280;16044;52.726;-2.108;2023-11-22T09:42:09;101847.16;;;7.60;100.00
28935;BME280;16044;52.726;-2.108;2023-11-22T09:44:40;101866.78;;;7.63;100.00
28935;BME280;16044;52.726;-2.108;2023-11-22T09:47:11;101880.88;;;7.66;100.00
28935;BME280;16044;52.726;-2.108;2023-11-22T09:49:42;101888.72;;;7.69;100.00
28935;BME280;16044;52.726;-2.108;2023-11-22T09:52:16;101886.16;;;7.68;100.00
28935;BME280;16044;52.726;-2.108;2023-11-22T09:54:53;101877.78;;;7.71;100.00
28935;BME280;16044;52.726;-2.108;2023-11-22T09:57:27;101879.53;;;7.72;100.00
28935;BME280;16044;52.726;-2.108;2023-11-22T10:00:01;101878.41;;;7.74;100.00
28935;BME280;16044;52.726;-2.108;2023-11-22T10:02:33;101879.41;;;7.73;100.00
28935;BME280;16044;52.726;-2.108;2023-11-22T10:05:06;101890.81;;;7.77;100.00
28935;BME280;16044;52.726;-2.108;2023-11-22T10:07:39;101887.13;;;7.78;100.00
28935;BME280;16044;52.726;-2.108;2023-11-22T10:10:12;101888.84;;;7.79;100.00
28935;BME280;16044;52.726;-2.108;2023-11-22T10:12:45;101911.28;;;7.79;100.00
28935;BME280;16044;52.726;-2.108;2023-11-22T10:15:17;101882.34;;;7.81;100.00
28935;BME280;16044;52.726;-2.108;2023-11-22T10:17:54;101903.69;;;7.85;100.00
28935;BME280;16044;52.726;-2.108;2023-11-22T10:20:36;101914.59;;;7.83;100.00
28935;BME280;16044;52.726;-2.108;2023-11-22T10:23:11;101910.78;;;7.86;100.00
28935;BME280;16044;52.726;-2.108;2023-11-22T10:25:46;101901.84;;;7.85;100.00
28935;BME280;16044;52.726;-2.108;2023-11-22T10:28:22;101903.44;;;7.88;100.00
28935;BME280;16044;52.726;-2.108;2023-11-22T10:30:57;101884.41;;;7.89;100.00
28935;BME280;16044;52.726;-2.108;2023-11-22T10:33:27;101903.31;;;7.89;100.00
28935;BME280;16044;52.726;-2.108;2023-11-22T10:35:58;101896.94;;;7.90;100.00
28935;BME280;16044;52.726;-2.108;2023-11-22T10:38:29;101876.81;;;7.94;100.00
28935;BME280;16044;52.726;-2.108;2023-11-22T10:40:59;101877.41;;;7.98;100.00
28935;BME280;16044;52.726;-2.108;2023-11-22T10:43:37;101879.97;;;7.99;100.00
28935;BME280;16044;52.726;-2.108;2023-11-22T10:46:09;101884.28;;;8.02;100.00
28935;BME280;16044;52.726;-2.108;2023-11-22T10:48:40;101892.25;;;8.04;100.00
28935;BME280;16044;52.726;-2.108;2023-11-22T10:51:13;101885.59;;;8.08;100.00
28935;BME280;16044;52.726;-2.108;2023-11-22T10:53:48;101891.13;;;8.06;100.00
28935;BME280;16044;52.726;-2.108;2023-11-22T10:56:20;101881.44;;;8.15;100.00
28935;BME280;16044;52.726;-2.108;2023-11-22T10:58:56;101874.66;;;8.20;100.00
28935;BME280;16044;52.726;-2.108;2023-11-22T11:01:26;101872.69;;;8.23;100.00
28935;BME280;16044;52.726;-2.108;2023-11-22T11:04:01;101866.03;;;8.27;100.00
28935;BME280;16044;52.726;-2.108;2023-11-22T11:06:35;101856.69;;;8.31;100.00
28935;BME280;16044;52.726;-2.108;2023-11-22T11:09:06;101859.16;;;8.34;100.00
28935;BME280;16044;52.726;-2.108;2023-11-22T11:11:37;101845.22;;;8.38;100.00
28935;BME280;16044;52.726;-2.108;2023-11-22T11:14:11;101843.03;;;8.44;100.00
28935;BME280;16044;52.726;-2.108;2023-11-22T11:16:43;101848.03;;;8.48;100.00
28935;BME280;16044;52.726;-2.108;2023-11-22T11:19:17;101829.00;;;8.50;100.00
28935;BME280;16044;52.726;-2.108;2023-11-22T11:21:49;101823.06;;;8.56;100.00
28935;BME280;16044;52.726;-2.108;2023-11-22T11:24:20;101818.53;;;8.56;100.00
28935;BME280;16044;52.726;-2.108;2023-11-22T11:26:50;101813.75;;;8.60;100.00
28935;BME280;16044;52.726;-2.108;2023-11-22T11:29:34;101807.81;;;8.66;100.00
28935;BME280;16044;52.726;-2.108;2023-11-22T11:32:10;101797.84;;;8.67;100.00
28935;BME280;16044;52.726;-2.108;2023-11-22T11:34:47;101797.41;;;8.71;100.00
28935;BME280;16044;52.726;-2.108;2023-11-22T11:37:19;101791.63;;;8.76;100.00
28935;BME280;16044;52.726;-2.108;2023-11-22T11:39:50;101793.94;;;8.81;100.00
28935;BME280;16044;52.726;-2.108;2023-11-22T11:42:22;101781.13;;;8.83;100.00
28935;BME280;16044;52.726;-2.108;2023-11-22T11:45:06;101792.28;;;8.89;100.00
28935;BME280;16044;52.726;-2.108;2023-11-22T11:47:37;101781.22;;;8.92;100.00
28935;BME280;16044;52.726;-2.108;2023-11-22T11:50:08;101781.50;;;8.99;100.00
28935;BME280;16044;52.726;-2.108;2023-11-22T11:52:39;101780.38;;;9.02;100.00
28935;BME280;16044;52.726;-2.108;2023-11-22T11:55:09;101781.97;;;9.04;100.00
28935;BME280;16044;52.726;-2.108;2023-11-22T11:57:40;101774.03;;;9.12;100.00
28935;BME280;16044;52.726;-2.108;2023-11-22T12:00:16;101781.03;;;9.15;100.00
28935;BME280;16044;52.726;-2.108;2023-11-22T12:02:48;101771.53;;;9.21;100.00
28935;BME280;16044;52.726;-2.108;2023-11-22T12:05:19;101773.66;;;9.27;100.00
28935;BME280;16044;52.726;-2.108;2023-11-22T12:07:50;101768.72;;;9.32;100.00
28935;BME280;16044;52.726;-2.108;2023-11-22T12:10:20;101770.00;;;9.38;100.00
28935;BME280;16044;52.726;-2.108;2023-11-22T12:12:51;101768.56;;;9.43;100.00
28935;BME280;16044;52.726;-2.108;2023-11-22T12:15:24;101768.91;;;9.50;100.00
28935;BME280;16044;52.726;-2.108;2023-11-22T12:17:56;101760.22;;;9.56;100.00
28935;BME280;16044;52.726;-2.108;2023-11-22T12:20:28;101756.69;;;9.65;100.00
28935;BME280;16044;52.726;-2.108;2023-11-22T12:22:59;101751.84;;;9.69;100.00
28935;BME280;16044;52.726;-2.108;2023-11-22T12:25:30;101740.44;;;9.75;100.00
28935;BME280;16044;52.726;-2.108;2023-11-22T12:28:00;101736.44;;;9.79;100.00
28935;BME280;16044;52.726;-2.108;2023-11-22T12:30:37;101732.50;;;9.83;100.00
28935;BME280;16044;52.726;-2.108;2023-11-22T12:33:10;101744.44;;;9.90;100.00
28935;BME280;16044;52.726;-2.108;2023-11-22T12:35:45;101740.47;;;9.94;100.00
28935;BME280;16044;52.726;-2.108;2023-11-22T12:38:16;101735.78;;;9.97;100.00
28935;BME280;16044;52.726;-2.108;2023-11-22T12:40:46;101740.75;;;10.01;100.00
28935;BME280;16044;52.726;-2.108;2023-11-22T12:43:17;101753.88;;;10.06;100.00
28935;BME280;16044;52.726;-2.108;2023-11-22T12:45:58;101753.56;;;10.09;100.00
28935;BME280;16044;52.726;-2.108;2023-11-22T12:48:29;101741.31;;;10.14;100.00
28935;BME280;16044;52.726;-2.108;2023-11-22T12:51:00;101751.88;;;10.18;100.00
28935;BME280;16044;52.726;-2.108;2023-11-22T12:53:30;101750.44;;;10.23;100.00
28935;BME280;16044;52.726;-2.108;2023-11-22T12:56:01;101734.63;;;10.28;100.00
28935;BME280;16044;52.726;-2.108;2023-11-22T12:58:32;101724.53;;;10.30;100.00
28935;BME280;16044;52.726;-2.108;2023-11-22T13:01:06;101717.66;;;10.36;100.00
28935;BME280;16044;52.726;-2.108;2023-11-22T13:03:36;101719.50;;;10.36;100.00